Terminal Aerodrome Forecast
Issued by NWS

Home | Current Version | Previous Version | Text Only | Print | Product List | Glossary On
Versions: 1 2 3 4 5 6 7 8 9 10 11 12 13 14 15 16 17 18 19
000
FTUS43 KILX 230534
TAFDEC
TAF
KDEC 230534Z 2306/2406 22006KT P6SM VCSH BKN070
     FM231000 23005KT P6SM BKN080
     FM231900 15005KT P6SM VCTS OVC070CB
     FM232200 15006KT P6SM -SHRA BKN035
     FM240100 30005KT P6SM -SHRA OVC030=

USA.gov is the U.S. government's official web portal to all federal, state and local government web resources and services.